createdAt,value
2022-10-09T00:00:00.190Z,2.53
2022-10-09T00:01:27.821Z,2.40
2022-10-09T00:02:30.042Z,2.63
2022-10-09T00:03:33.738Z,2.40
2022-10-09T00:04:35.939Z,2.37
2022-10-09T00:05:39.231Z,2.40
2022-10-09T00:06:41.555Z,2.40
2022-10-09T00:07:43.775Z,2.63
2022-10-09T00:08:47.194Z,2.60
2022-10-09T00:09:49.470Z,2.63
2022-10-09T00:10:52.156Z,2.50
2022-10-09T00:11:54.330Z,2.90
2022-10-09T00:13:00.190Z,2.70
2022-10-09T00:14:03.010Z,2.77
2022-10-09T00:15:05.592Z,2.60
2022-10-09T00:16:10.263Z,2.50
2022-10-09T00:17:12.516Z,2.70
2022-10-09T00:18:17.255Z,2.70
2022-10-09T00:19:19.472Z,2.63
2022-10-09T00:20:21.730Z,2.53
2022-10-09T00:21:30.092Z,2.60
2022-10-09T00:22:32.557Z,2.53
2022-10-09T00:23:34.718Z,2.30
2022-10-09T00:24:37.026Z,2.20
2022-10-09T00:25:39.469Z,2.17
2022-10-09T00:26:41.633Z,2.40
2022-10-09T00:27:43.894Z,2.20
2022-10-09T00:28:47.042Z,2.40
2022-10-09T00:29:49.929Z,2.43
2022-10-09T00:30:53.452Z,2.40
2022-10-09T00:31:55.706Z,2.50
2022-10-09T00:32:57.909Z,2.30
2022-10-09T00:34:00.214Z,2.20
2022-10-09T00:35:02.407Z,2.40
2022-10-09T00:36:06.405Z,2.50
2022-10-09T00:37:08.604Z,2.07
2022-10-09T00:38:11.505Z,2.20
2022-10-09T00:39:14.083Z,2.57
2022-10-09T00:40:16.739Z,2.20
2022-10-09T00:41:22.508Z,2.20
2022-10-09T00:42:26.459Z,2.27
2022-10-09T00:43:39.707Z,2.20
2022-10-09T00:44:50.050Z,2.10
2022-10-09T00:45:56.745Z,2.30
2022-10-09T00:46:59.870Z,2.30
2022-10-09T00:48:04.977Z,2.40
2022-10-09T00:49:15.373Z,2.13
2022-10-09T00:50:24.244Z,2.53
2022-10-09T00:51:29.869Z,2.40
2022-10-09T00:52:33.174Z,2.27
2022-10-09T00:53:35.500Z,2.30
2022-10-09T00:54:41.327Z,2.40
2022-10-09T00:55:43.823Z,2.20
2022-10-09T00:56:46.117Z,2.40
2022-10-09T00:57:48.934Z,2.40
2022-10-09T00:58:55.020Z,2.37
2022-10-09T00:59:57.275Z,2.47
2022-10-09T01:00:59.500Z,2.30
2022-10-09T01:02:02.043Z,2.47
2022-10-09T01:03:04.403Z,2.20
2022-10-09T01:04:06.682Z,2.20
2022-10-09T01:05:10.361Z,2.13
2022-10-09T01:06:37.195Z,2.50
2022-10-09T01:07:53.081Z,2.43
2022-10-09T01:09:33.628Z,2.10
2022-10-09T01:10:58.807Z,2.10
2022-10-09T01:12:34.584Z,2.40
2022-10-09T01:14:05.112Z,2.27
2022-10-09T01:15:36.738Z,2.40
2022-10-09T01:16:47.025Z,2.33
2022-10-09T01:17:57.249Z,2.30
2022-10-09T01:19:16.399Z,1.97
2022-10-09T01:20:35.024Z,2.00
2022-10-09T01:21:47.294Z,2.33
2022-10-09T01:23:22.044Z,2.00
2022-10-09T01:24:46.742Z,2.20
2022-10-09T01:26:01.045Z,2.33
2022-10-09T01:27:23.721Z,2.27
2022-10-09T01:28:30.771Z,2.00
2022-10-09T01:29:42.367Z,2.50
2022-10-09T01:30:45.928Z,2.00
2022-10-09T01:31:50.849Z,2.43
2022-10-09T01:32:55.024Z,2.20
2022-10-09T01:34:01.214Z,2.13
2022-10-09T01:35:06.438Z,2.20
2022-10-09T01:36:10.051Z,2.10
2022-10-09T01:37:14.815Z,2.23
2022-10-09T01:38:18.987Z,2.20
2022-10-09T01:39:24.127Z,2.23
2022-10-09T01:40:28.456Z,2.20
2022-10-09T01:41:30.964Z,2.00
2022-10-09T01:42:33.573Z,2.13
2022-10-09T01:43:35.953Z,1.97
2022-10-09T01:44:38.203Z,2.20
2022-10-09T01:45:43.697Z,2.10
2022-10-09T01:46:46.784Z,2.10
2022-10-09T01:47:49.075Z,2.20
2022-10-09T01:49:00.142Z,2.40
2022-10-09T01:50:10.400Z,2.63
2022-10-09T01:51:13.018Z,2.40
2022-10-09T01:52:15.204Z,2.30
2022-10-09T01:53:20.958Z,2.30
2022-10-09T01:54:59.120Z,2.33
2022-10-09T01:56:11.685Z,2.07
2022-10-09T01:57:18.109Z,2.10
2022-10-09T01:58:31.210Z,2.30
2022-10-09T01:59:42.485Z,2.23
2022-10-09T02:01:14.900Z,2.43
2022-10-09T02:02:18.248Z,2.47
2022-10-09T02:03:21.757Z,2.50
2022-10-09T02:04:25.402Z,2.20
2022-10-09T02:05:29.995Z,2.30
2022-10-09T02:06:32.567Z,2.57
2022-10-09T02:07:35.344Z,2.80
2022-10-09T02:08:40.412Z,2.77
2022-10-09T02:09:44.171Z,2.30
2022-10-09T02:10:49.506Z,2.40
2022-10-09T02:11:56.929Z,2.90
2022-10-09T02:13:00.925Z,2.40
2022-10-09T02:14:03.952Z,2.43
2022-10-09T02:15:07.364Z,2.57
2022-10-09T02:16:21.856Z,2.40
2022-10-09T02:17:30.065Z,2.77
2022-10-09T02:18:47.653Z,2.37
2022-10-09T02:20:04.200Z,2.53
2022-10-09T02:21:13.164Z,2.60
2022-10-09T02:22:19.953Z,2.40
2022-10-09T02:23:25.610Z,2.37
2022-10-09T02:24:28.695Z,2.77
2022-10-09T02:25:31.433Z,2.63
2022-10-09T02:26:33.791Z,2.60
2022-10-09T02:27:36.393Z,2.40
2022-10-09T02:28:45.079Z,2.90
2022-10-09T02:29:49.271Z,2.87
2022-10-09T02:31:01.782Z,2.63
2022-10-09T02:32:04.060Z,2.57
2022-10-09T02:33:06.345Z,2.90
2022-10-09T02:34:16.561Z,2.60
2022-10-09T02:35:19.087Z,2.20
2022-10-09T02:36:21.294Z,2.53
2022-10-09T02:37:23.576Z,3.10
2022-10-09T02:38:25.805Z,2.40
2022-10-09T02:39:28.025Z,2.33
2022-10-09T02:40:30.198Z,2.33
2022-10-09T02:41:33.211Z,2.60
2022-10-09T02:42:35.437Z,2.67
2022-10-09T02:43:37.750Z,2.73
2022-10-09T02:44:42.590Z,2.50
2022-10-09T02:45:44.786Z,2.57
2022-10-09T02:46:47.131Z,2.90
2022-10-09T02:47:49.343Z,2.53
2022-10-09T02:48:51.821Z,2.20
2022-10-09T02:49:54.041Z,3.23
2022-10-09T02:50:56.322Z,2.60
2022-10-09T02:51:58.546Z,2.60
2022-10-09T02:53:00.766Z,2.57
2022-10-09T02:54:03.155Z,2.57
2022-10-09T02:55:05.585Z,2.53
2022-10-09T02:56:07.961Z,2.80
2022-10-09T02:57:10.201Z,3.33
2022-10-09T02:58:12.407Z,2.87
2022-10-09T02:59:14.609Z,2.60
2022-10-09T03:00:16.957Z,2.80
2022-10-09T03:01:19.675Z,2.80
2022-10-09T03:02:22.016Z,2.57
2022-10-09T03:03:24.419Z,2.80
2022-10-09T03:04:26.614Z,2.77
2022-10-09T03:05:28.830Z,2.80
2022-10-09T03:06:31.158Z,2.73
2022-10-09T03:07:33.445Z,2.83
2022-10-09T03:08:37.867Z,2.90
2022-10-09T03:09:40.075Z,2.80
2022-10-09T03:10:42.325Z,2.80
2022-10-09T03:11:44.575Z,2.40
2022-10-09T03:12:48.271Z,2.70
2022-10-09T03:13:51.156Z,2.70
2022-10-09T03:14:53.339Z,2.80
2022-10-09T03:15:55.663Z,2.40
2022-10-09T03:16:57.910Z,2.83
2022-10-09T03:18:00.113Z,2.83
2022-10-09T03:19:02.356Z,2.63
2022-10-09T03:20:05.075Z,3.20
2022-10-09T03:21:09.175Z,3.00
2022-10-09T03:22:11.379Z,2.60
2022-10-09T03:23:13.592Z,2.60
2022-10-09T03:24:15.843Z,2.77
2022-10-09T03:25:18.074Z,3.00
2022-10-09T03:26:23.950Z,2.87
2022-10-09T03:27:26.128Z,2.60
2022-10-09T03:28:29.194Z,2.90
2022-10-09T03:29:31.407Z,2.90
2022-10-09T03:30:33.587Z,2.90
2022-10-09T03:31:53.062Z,2.60
2022-10-09T03:32:55.617Z,2.90
2022-10-09T03:33:58.035Z,2.90
2022-10-09T03:35:00.221Z,2.90
2022-10-09T03:36:03.591Z,2.97
2022-10-09T03:37:06.231Z,3.10
2022-10-09T03:38:08.497Z,3.47
2022-10-09T03:39:10.795Z,3.20
2022-10-09T03:40:13.151Z,3.20
2022-10-09T03:41:15.343Z,2.80
2022-10-09T03:42:17.583Z,2.97
2022-10-09T03:43:20.267Z,3.00
2022-10-09T03:44:22.604Z,3.40
2022-10-09T03:45:24.834Z,3.23
2022-10-09T03:46:27.183Z,2.83
2022-10-09T03:47:29.404Z,3.20
2022-10-09T03:48:31.619Z,2.70
2022-10-09T03:49:33.853Z,2.93
2022-10-09T03:50:38.445Z,3.00
2022-10-09T03:51:40.732Z,3.00
2022-10-09T03:52:42.898Z,3.10
2022-10-09T03:53:45.094Z,2.93
2022-10-09T03:54:47.295Z,2.80
2022-10-09T03:55:49.497Z,3.00
2022-10-09T03:56:51.706Z,2.80
2022-10-09T03:57:53.957Z,3.00
2022-10-09T03:58:56.267Z,3.07
2022-10-09T03:59:58.458Z,2.90
2022-10-09T04:01:00.716Z,2.90
2022-10-09T04:02:03.074Z,2.90
2022-10-09T04:03:05.453Z,2.90
2022-10-09T04:04:07.767Z,2.87
2022-10-09T04:05:10.001Z,3.27
2022-10-09T04:06:12.434Z,2.90
2022-10-09T04:07:14.643Z,3.10
2022-10-09T04:08:16.878Z,3.17
2022-10-09T04:09:19.059Z,3.20
2022-10-09T04:10:21.306Z,3.33
2022-10-09T04:11:23.476Z,3.13
2022-10-09T04:12:25.699Z,3.20
2022-10-09T04:13:27.957Z,3.13
2022-10-09T04:14:30.147Z,3.23
2022-10-09T04:15:32.417Z,3.30
2022-10-09T04:16:34.682Z,3.03
2022-10-09T04:17:36.949Z,3.30
2022-10-09T04:18:40.662Z,3.60
2022-10-09T04:19:42.839Z,3.40
2022-10-09T04:20:49.794Z,3.70
2022-10-09T04:21:52.369Z,3.60
2022-10-09T04:22:54.565Z,3.20
2022-10-09T04:23:56.749Z,3.20
2022-10-09T04:24:58.964Z,2.97
2022-10-09T04:26:02.177Z,3.30
2022-10-09T04:27:04.548Z,3.50
2022-10-09T04:28:06.800Z,3.43
2022-10-09T04:29:09.064Z,3.20
2022-10-09T04:30:11.576Z,3.20
2022-10-09T04:31:13.803Z,3.40
2022-10-09T04:32:16.101Z,3.40
2022-10-09T04:33:18.850Z,3.20
2022-10-09T04:34:21.080Z,3.00
2022-10-09T04:35:23.289Z,3.20
2022-10-09T04:36:25.582Z,3.40
2022-10-09T04:37:27.828Z,3.20
2022-10-09T04:38:31.399Z,3.00
2022-10-09T04:39:33.642Z,3.20
2022-10-09T04:40:35.935Z,2.97
2022-10-09T04:41:38.633Z,3.00
2022-10-09T04:42:40.921Z,2.63
2022-10-09T04:43:43.106Z,3.40
2022-10-09T04:44:47.565Z,2.90
2022-10-09T04:45:49.907Z,3.20
2022-10-09T04:46:52.239Z,3.33
2022-10-09T04:47:54.498Z,3.20
2022-10-09T04:48:56.706Z,3.20
2022-10-09T04:49:58.953Z,3.43
2022-10-09T04:51:04.551Z,3.30
2022-10-09T04:52:06.825Z,3.50
2022-10-09T04:53:09.574Z,3.30
2022-10-09T04:54:12.435Z,3.43
2022-10-09T04:55:14.924Z,3.33
2022-10-09T04:56:19.775Z,3.63
2022-10-09T04:57:21.999Z,3.17
2022-10-09T04:58:24.179Z,3.43
2022-10-09T04:59:26.385Z,3.30
2022-10-09T05:00:28.609Z,3.33
2022-10-09T05:01:34.324Z,3.23
2022-10-09T05:02:40.205Z,3.30
2022-10-09T05:03:42.821Z,3.40
2022-10-09T05:04:46.663Z,3.07
2022-10-09T05:05:48.936Z,3.27
2022-10-09T05:06:51.135Z,3.13
2022-10-09T05:07:53.360Z,2.93
2022-10-09T05:08:55.876Z,3.30
2022-10-09T05:09:58.076Z,3.50
2022-10-09T05:11:17.635Z,3.10
2022-10-09T05:12:19.838Z,3.50
2022-10-09T05:13:22.013Z,3.23
2022-10-09T05:14:24.223Z,3.10
2022-10-09T05:15:26.649Z,3.07
2022-10-09T05:16:29.660Z,3.33
2022-10-09T05:17:32.080Z,3.40
2022-10-09T05:18:35.426Z,3.23
2022-10-09T05:19:37.670Z,3.27
2022-10-09T05:20:42.700Z,3.10
2022-10-09T05:21:44.889Z,3.20
2022-10-09T05:22:48.112Z,2.90
2022-10-09T05:23:51.553Z,3.13
2022-10-09T05:24:53.722Z,3.07
2022-10-09T05:25:57.720Z,3.07
2022-10-09T05:26:59.935Z,3.40
2022-10-09T05:28:02.667Z,3.23
2022-10-09T05:29:05.052Z,3.60
2022-10-09T05:30:07.812Z,3.37
2022-10-09T05:31:15.275Z,3.20
2022-10-09T05:32:17.503Z,3.40
2022-10-09T05:33:20.094Z,3.23
2022-10-09T05:34:22.410Z,3.40
2022-10-09T05:35:24.631Z,3.23
2022-10-09T05:36:26.864Z,3.27
2022-10-09T05:37:29.076Z,3.20
2022-10-09T05:38:32.930Z,3.50
2022-10-09T05:39:36.118Z,2.90
2022-10-09T05:40:38.282Z,3.57
2022-10-09T05:41:40.503Z,3.20
2022-10-09T05:42:42.803Z,3.33
2022-10-09T05:43:48.675Z,3.43
2022-10-09T05:44:50.903Z,3.40
2022-10-09T05:45:53.522Z,2.93
2022-10-09T05:46:55.789Z,3.30
2022-10-09T05:47:57.955Z,2.90
2022-10-09T05:49:05.359Z,3.13
2022-10-09T05:50:07.894Z,3.03
2022-10-09T05:51:17.189Z,3.60
2022-10-09T05:52:19.400Z,3.37
2022-10-09T05:53:21.560Z,3.20
2022-10-09T05:54:23.806Z,3.30
2022-10-09T05:55:27.354Z,3.27
2022-10-09T05:56:38.129Z,2.93
2022-10-09T05:57:40.394Z,2.90
2022-10-09T05:58:43.947Z,2.83
2022-10-09T05:59:46.183Z,3.03
2022-10-09T06:00:48.379Z,3.13
2022-10-09T06:01:51.829Z,3.17
2022-10-09T06:02:55.046Z,3.20
2022-10-09T06:03:59.069Z,3.40
2022-10-09T06:05:01.393Z,3.00
2022-10-09T06:06:06.313Z,3.00
2022-10-09T06:07:08.519Z,3.00
2022-10-09T06:08:10.689Z,3.10
2022-10-09T06:09:15.105Z,3.60
2022-10-09T06:10:17.359Z,2.80
2022-10-09T06:11:22.314Z,3.40
2022-10-09T06:12:24.552Z,2.90
2022-10-09T06:13:26.708Z,2.90
2022-10-09T06:14:32.925Z,3.03
2022-10-09T06:15:35.138Z,3.20
2022-10-09T06:16:41.010Z,3.07
2022-10-09T06:17:43.325Z,3.10
2022-10-09T06:18:49.330Z,3.03
2022-10-09T06:19:51.944Z,2.80
2022-10-09T06:20:59.015Z,2.97
2022-10-09T06:22:01.216Z,3.03
2022-10-09T06:23:05.792Z,3.03
2022-10-09T06:24:08.704Z,3.00
2022-10-09T06:25:11.239Z,3.30
2022-10-09T06:26:13.842Z,3.10
2022-10-09T06:27:16.217Z,2.70
2022-10-09T06:28:18.462Z,3.10
2022-10-09T06:29:20.680Z,2.83
2022-10-09T06:30:22.903Z,2.73
2022-10-09T06:31:28.020Z,2.90
2022-10-09T06:32:30.373Z,3.20
2022-10-09T06:33:37.581Z,3.03
2022-10-09T06:34:40.895Z,2.90
2022-10-09T06:35:43.194Z,3.00
2022-10-09T06:36:48.384Z,3.00
2022-10-09T06:37:50.581Z,3.20
2022-10-09T06:38:53.901Z,3.00
2022-10-09T06:39:56.091Z,2.83
2022-10-09T06:41:03.458Z,3.20
2022-10-09T06:42:05.703Z,3.60
2022-10-09T06:43:25.161Z,3.17
2022-10-09T06:44:27.432Z,2.97
2022-10-09T06:45:29.891Z,3.00
2022-10-09T06:46:38.023Z,3.33
2022-10-09T06:47:40.203Z,2.97
2022-10-09T06:48:43.405Z,3.27
2022-10-09T06:49:45.619Z,3.20
2022-10-09T06:50:48.071Z,3.10
2022-10-09T06:51:50.280Z,2.90
2022-10-09T06:52:53.962Z,3.10
2022-10-09T06:53:58.701Z,3.00
2022-10-09T06:55:00.940Z,2.90
2022-10-09T06:56:03.977Z,3.17
2022-10-09T06:57:06.205Z,3.10
2022-10-09T06:58:08.424Z,2.93
2022-10-09T06:59:12.524Z,3.20
2022-10-09T07:00:15.073Z,2.70
2022-10-09T07:01:32.521Z,2.90
2022-10-09T07:02:34.957Z,3.60
2022-10-09T07:03:39.377Z,3.17
2022-10-09T07:04:41.611Z,3.00
2022-10-09T07:05:43.800Z,3.50
2022-10-09T07:06:49.478Z,3.70
2022-10-09T07:07:51.673Z,4.07
2022-10-09T07:09:00.432Z,4.10
2022-10-09T07:10:02.698Z,4.67
2022-10-09T07:11:16.832Z,4.50
2022-10-09T07:12:19.146Z,4.90
2022-10-09T07:13:21.306Z,4.70
2022-10-09T07:14:23.487Z,4.33
2022-10-09T07:15:25.763Z,4.17
2022-10-09T07:16:33.454Z,4.17
2022-10-09T07:17:35.724Z,3.80
2022-10-09T07:18:38.591Z,3.97
2022-10-09T07:19:40.887Z,3.88
2022-10-09T07:20:43.109Z,3.40
2022-10-09T07:21:47.737Z,3.47
2022-10-09T07:22:50.319Z,3.53
2022-10-09T07:23:54.209Z,3.30
2022-10-09T07:24:56.476Z,3.10
2022-10-09T07:25:59.749Z,3.08
2022-10-09T07:27:01.985Z,3.08
2022-10-09T07:28:04.487Z,3.30
2022-10-09T07:29:08.495Z,3.20
2022-10-09T07:30:11.439Z,3.20
2022-10-09T07:31:14.919Z,3.42
2022-10-09T07:32:17.298Z,3.17
2022-10-09T07:33:19.750Z,3.10
2022-10-09T07:34:22.059Z,3.30
2022-10-09T07:35:24.314Z,3.30
2022-10-09T07:36:27.062Z,3.20
2022-10-09T07:37:31.559Z,3.33
2022-10-09T07:38:33.957Z,2.90
2022-10-09T07:39:36.523Z,3.30
2022-10-09T07:40:38.807Z,2.92
2022-10-09T07:41:41.028Z,3.22
2022-10-09T07:42:43.271Z,2.78
2022-10-09T07:43:45.873Z,2.78
2022-10-09T07:44:48.142Z,2.80
2022-10-09T07:45:50.427Z,2.97
2022-10-09T07:46:52.743Z,2.78
2022-10-09T07:47:54.914Z,2.90
2022-10-09T07:48:57.105Z,3.30
2022-10-09T07:49:59.296Z,3.00
2022-10-09T07:51:10.240Z,3.25
2022-10-09T07:52:12.502Z,3.13
2022-10-09T07:53:14.769Z,2.85
2022-10-09T07:54:17.242Z,3.08
2022-10-09T07:55:19.457Z,3.03
2022-10-09T07:56:24.638Z,3.00
2022-10-09T07:57:26.928Z,3.45
2022-10-09T07:58:29.591Z,3.30
2022-10-09T07:59:31.735Z,3.15
2022-10-09T08:00:33.951Z,3.08
2022-10-09T08:01:36.790Z,3.13
2022-10-09T08:02:39.314Z,2.97
2022-10-09T08:03:41.640Z,3.10
2022-10-09T08:04:43.940Z,3.22
2022-10-09T08:05:54.482Z,2.90
2022-10-09T08:07:01.529Z,3.03
2022-10-09T08:08:03.905Z,3.28
2022-10-09T08:09:07.859Z,3.58
2022-10-09T08:10:12.635Z,3.70
2022-10-09T08:11:16.252Z,3.20
2022-10-09T08:12:18.692Z,3.20
2022-10-09T08:13:20.892Z,3.22
2022-10-09T08:14:23.094Z,3.22
2022-10-09T08:15:25.857Z,2.90
2022-10-09T08:16:28.923Z,2.92
2022-10-09T08:17:32.175Z,2.80
2022-10-09T08:18:35.142Z,2.70
2022-10-09T08:19:37.414Z,2.97
2022-10-09T08:20:39.915Z,2.80
2022-10-09T08:21:42.322Z,2.90
2022-10-09T08:22:44.517Z,3.28
2022-10-09T08:23:46.904Z,2.88
2022-10-09T08:24:49.122Z,3.28
2022-10-09T08:25:53.983Z,3.28
2022-10-09T08:26:58.531Z,3.00
2022-10-09T08:28:00.704Z,3.38
2022-10-09T08:29:04.929Z,3.20
2022-10-09T08:30:07.831Z,3.20
2022-10-09T08:31:14.421Z,3.05
2022-10-09T08:32:16.700Z,3.17
2022-10-09T08:33:21.980Z,3.20
2022-10-09T08:34:24.268Z,3.45
2022-10-09T08:35:33.720Z,3.67
2022-10-09T08:36:44.141Z,3.20
2022-10-09T08:37:46.432Z,3.25
2022-10-09T08:38:49.028Z,2.97
2022-10-09T08:39:51.343Z,3.53
2022-10-09T08:41:42.243Z,3.00
2022-10-09T08:42:53.642Z,3.13
2022-10-09T08:44:03.448Z,3.30
2022-10-09T08:45:14.074Z,3.08
2022-10-09T08:46:22.304Z,3.15
2022-10-09T08:47:42.942Z,2.92
2022-10-09T08:48:46.178Z,3.05
2022-10-09T08:49:57.502Z,3.13
2022-10-09T08:51:00.621Z,3.00
2022-10-09T08:52:35.077Z,2.88
2022-10-09T08:53:45.675Z,3.13
2022-10-09T08:54:48.059Z,3.15
2022-10-09T08:55:55.356Z,2.80
2022-10-09T08:57:08.654Z,2.88
2022-10-09T08:58:16.421Z,2.70
2022-10-09T08:59:18.869Z,3.10
2022-10-09T09:00:24.294Z,2.88
2022-10-09T09:01:48.709Z,2.88
2022-10-09T09:03:02.525Z,3.00
2022-10-09T09:04:25.319Z,3.22
2022-10-09T09:05:35.590Z,2.80
2022-10-09T09:06:56.641Z,2.70
2022-10-09T09:08:13.245Z,2.90
2022-10-09T09:09:25.334Z,3.08
2022-10-09T09:10:36.768Z,2.72
2022-10-09T09:11:44.822Z,2.63
2022-10-09T09:12:55.265Z,2.70
2022-10-09T09:14:12.755Z,2.67
2022-10-09T09:15:45.827Z,2.58
2022-10-09T09:17:09.293Z,2.60
2022-10-09T09:18:29.763Z,2.40
2022-10-09T09:19:50.055Z,2.85
2022-10-09T09:21:09.959Z,2.33
2022-10-09T09:22:14.602Z,2.80
2022-10-09T09:23:17.330Z,2.25
2022-10-09T09:24:53.967Z,2.60
2022-10-09T09:25:59.032Z,2.55
2022-10-09T09:27:10.533Z,2.30
2022-10-09T09:28:28.263Z,2.28
2022-10-09T09:29:39.470Z,2.30
2022-10-09T09:30:50.684Z,2.42
2022-10-09T09:31:59.456Z,2.28
2022-10-09T09:33:12.161Z,2.10
2022-10-09T09:34:28.237Z,2.17
2022-10-09T09:35:49.622Z,2.30
2022-10-09T09:36:58.496Z,2.20
2022-10-09T09:38:01.152Z,2.10
2022-10-09T09:40:37.596Z,2.47
2022-10-09T09:41:42.819Z,2.40
2022-10-09T09:42:45.064Z,2.70
2022-10-09T09:43:47.373Z,2.63
2022-10-09T09:45:00.348Z,2.10
2022-10-09T09:46:03.466Z,2.20
2022-10-09T09:47:14.259Z,2.17
2022-10-09T09:48:31.290Z,2.40
2022-10-09T09:49:33.481Z,2.55
2022-10-09T09:50:52.996Z,2.80
2022-10-09T09:52:02.363Z,2.35
2022-10-09T09:53:14.569Z,2.40
2022-10-09T09:54:34.791Z,2.60
2022-10-09T09:55:37.138Z,2.55
2022-10-09T09:57:11.145Z,2.40
2022-10-09T09:58:08.957Z,2.42
2022-10-09T09:59:33.211Z,2.45
2022-10-09T10:00:36.039Z,2.38
2022-10-09T10:01:38.358Z,2.10
2022-10-09T10:02:43.703Z,2.38
2022-10-09T10:03:50.158Z,2.45
2022-10-09T10:05:06.119Z,2.30
2022-10-09T10:06:22.136Z,2.40
2022-10-09T10:07:51.646Z,2.53
2022-10-09T10:09:13.188Z,2.35
2022-10-09T10:10:24.936Z,2.30
2022-10-09T10:11:28.459Z,2.45
2022-10-09T10:12:33.231Z,2.40
2022-10-09T10:13:45.712Z,2.63
2022-10-09T10:14:51.093Z,2.50
2022-10-09T10:15:57.855Z,2.45
2022-10-09T10:17:02.223Z,2.63
2022-10-09T10:18:13.140Z,2.30
2022-10-09T10:19:24.954Z,2.20
2022-10-09T10:20:28.715Z,2.00
2022-10-09T10:21:40.323Z,2.65
2022-10-09T10:22:47.313Z,2.00
2022-10-09T10:24:10.170Z,2.33
2022-10-09T10:25:17.957Z,1.90
2022-10-09T10:26:25.281Z,2.20
2022-10-09T10:27:42.684Z,2.10
2022-10-09T10:29:14.225Z,1.77
2022-10-09T10:30:19.877Z,1.83
2022-10-09T10:31:43.823Z,2.08
2022-10-09T10:32:56.043Z,1.83
2022-10-09T10:33:59.109Z,1.70
2022-10-09T10:35:33.888Z,1.98
2022-10-09T10:36:36.446Z,1.55
2022-10-09T10:37:50.190Z,2.00
2022-10-09T10:39:06.623Z,2.13
2022-10-09T10:40:19.431Z,2.10
2022-10-09T10:41:32.029Z,2.25
2022-10-09T10:42:42.522Z,1.58
2022-10-09T10:43:54.676Z,1.73
2022-10-09T10:45:00.771Z,1.95
2022-10-09T10:46:15.647Z,1.75
2022-10-09T10:47:24.291Z,1.67
2022-10-09T10:48:30.160Z,1.70
2022-10-09T10:49:33.930Z,1.90
2022-10-09T10:50:46.759Z,1.60
2022-10-09T10:52:07.507Z,2.00
2022-10-09T10:53:46.321Z,1.95
2022-10-09T10:55:12.755Z,1.50
2022-10-09T10:56:32.256Z,1.75
2022-10-09T10:57:53.250Z,1.65
2022-10-09T10:59:18.351Z,1.60
2022-10-09T11:00:23.879Z,1.60
2022-10-09T11:01:35.346Z,1.50
2022-10-09T11:03:06.218Z,1.80
2022-10-09T11:04:36.986Z,1.20
2022-10-09T11:05:54.952Z,1.65
2022-10-09T11:07:00.195Z,1.80
2022-10-09T11:08:21.165Z,1.58
2022-10-09T11:09:38.655Z,1.48
2022-10-09T11:11:00.827Z,1.55
2022-10-09T11:12:47.307Z,1.52
2022-10-09T11:13:53.360Z,1.67
2022-10-09T11:15:04.626Z,1.70
2022-10-09T11:16:19.091Z,1.60
2022-10-09T11:17:50.637Z,1.42
2022-10-09T11:19:34.883Z,2.00
2022-10-09T11:20:46.250Z,1.60
2022-10-09T11:22:12.742Z,1.52
2022-10-09T11:23:39.971Z,1.67
2022-10-09T11:24:51.682Z,1.55
2022-10-09T11:26:28.508Z,1.60
2022-10-09T11:27:57.424Z,1.55
2022-10-09T11:29:29.554Z,1.30
2022-10-09T11:30:40.068Z,1.40
2022-10-09T11:32:00.132Z,1.73
2022-10-09T11:33:33.346Z,1.42
2022-10-09T11:34:41.365Z,1.60
2022-10-09T11:35:56.425Z,1.48
2022-10-09T11:37:01.045Z,1.45
2022-10-09T11:38:08.162Z,1.63
2022-10-09T11:39:20.293Z,1.23
2022-10-09T11:40:29.342Z,1.65
2022-10-09T11:41:32.332Z,1.50
2022-10-09T11:42:35.392Z,1.40
2022-10-09T11:43:50.240Z,1.40
2022-10-09T11:45:13.734Z,1.50
2022-10-09T11:46:41.960Z,1.33
2022-10-09T11:48:05.624Z,1.60
2022-10-09T11:49:14.002Z,1.33
2022-10-09T11:50:25.129Z,1.67
2022-10-09T11:51:33.444Z,1.52
2022-10-09T11:52:48.948Z,1.60
2022-10-09T11:53:53.387Z,1.55
2022-10-09T11:54:55.652Z,1.55
2022-10-09T11:56:35.097Z,1.50
2022-10-09T11:57:37.320Z,1.42
2022-10-09T11:58:40.436Z,1.50
2022-10-09T11:59:42.795Z,1.40
2022-10-09T12:00:48.056Z,1.20
2022-10-09T12:01:50.459Z,1.30
2022-10-09T12:03:04.631Z,1.33
2022-10-09T12:04:37.473Z,1.50
2022-10-09T12:05:48.753Z,1.23
2022-10-09T12:06:57.814Z,1.13
2022-10-09T12:08:16.838Z,1.25
2022-10-09T12:09:32.773Z,1.13
2022-10-09T12:10:38.330Z,1.13
2022-10-09T12:11:41.054Z,1.25
2022-10-09T12:12:43.467Z,1.25
2022-10-09T12:13:58.925Z,1.27
2022-10-09T12:15:23.259Z,1.30
2022-10-09T12:16:38.858Z,1.58
2022-10-09T12:17:49.903Z,1.40
2022-10-09T12:18:52.344Z,1.20
2022-10-09T12:20:01.380Z,1.30
2022-10-09T12:21:11.803Z,1.10
2022-10-09T12:22:20.754Z,1.25
2022-10-09T12:23:28.132Z,0.93
2022-10-09T12:24:41.005Z,1.30
2022-10-09T12:25:49.078Z,1.27
2022-10-09T12:26:53.777Z,1.10
2022-10-09T12:27:57.383Z,1.20
2022-10-09T12:29:05.505Z,1.17
2022-10-09T12:31:41.776Z,0.93
2022-10-09T12:32:55.702Z,1.10
2022-10-09T12:34:21.155Z,1.15
2022-10-09T12:35:33.117Z,1.20
2022-10-09T12:36:35.545Z,0.90
2022-10-09T12:37:37.733Z,1.00
2022-10-09T12:38:40.501Z,1.25
2022-10-09T12:39:43.395Z,1.00
2022-10-09T12:40:47.902Z,1.02
2022-10-09T12:41:54.913Z,1.10
2022-10-09T12:43:00.902Z,1.10
2022-10-09T12:44:07.544Z,1.20
2022-10-09T12:45:22.601Z,1.30
2022-10-09T12:46:30.637Z,1.20
2022-10-09T12:47:35.188Z,1.20
2022-10-09T12:48:41.878Z,1.25
2022-10-09T12:49:54.713Z,1.00
2022-10-09T12:50:56.979Z,1.20
2022-10-09T12:52:00.502Z,1.30
2022-10-09T12:53:15.298Z,1.13
2022-10-09T12:54:17.570Z,0.90
2022-10-09T12:55:40.902Z,1.08
2022-10-09T12:56:43.740Z,1.13
2022-10-09T12:57:46.173Z,1.15
2022-10-09T12:58:49.137Z,1.02
2022-10-09T12:59:52.094Z,0.98
2022-10-09T13:00:59.167Z,1.30
2022-10-09T13:02:07.079Z,1.30
2022-10-09T13:03:54.526Z,1.35
2022-10-09T13:05:00.986Z,1.20
2022-10-09T13:06:07.119Z,1.20
2022-10-09T13:07:28.842Z,1.17
2022-10-09T13:08:34.788Z,1.20
2022-10-09T13:09:39.930Z,1.23
2022-10-09T13:10:42.293Z,1.30
2022-10-09T13:11:45.951Z,1.42
2022-10-09T13:12:54.563Z,1.60
2022-10-09T13:13:56.873Z,1.63
2022-10-09T13:15:00.432Z,1.67
2022-10-09T13:16:07.082Z,1.30
2022-10-09T13:17:35.595Z,1.45
2022-10-09T13:18:38.434Z,1.17
2022-10-09T13:19:51.833Z,1.10
2022-10-09T13:21:04.278Z,1.35
2022-10-09T13:22:24.158Z,1.00
2022-10-09T13:23:48.605Z,1.23
2022-10-09T13:24:56.113Z,1.20
2022-10-09T13:26:03.131Z,1.30
2022-10-09T13:27:06.139Z,1.20
2022-10-09T13:28:13.604Z,1.60
2022-10-09T13:29:15.806Z,1.40
2022-10-09T13:30:18.017Z,1.52
2022-10-09T13:31:20.820Z,1.00
2022-10-09T13:32:24.477Z,1.08
2022-10-09T13:33:32.784Z,1.30
2022-10-09T13:34:37.284Z,1.20
2022-10-09T13:35:39.473Z,1.30
2022-10-09T13:36:42.482Z,1.58
2022-10-09T13:37:48.276Z,1.70
2022-10-09T13:38:50.727Z,1.40
2022-10-09T13:39:58.281Z,1.40
2022-10-09T13:41:01.769Z,1.30
2022-10-09T13:42:04.639Z,1.30
2022-10-09T13:43:07.096Z,1.30
2022-10-09T13:44:09.549Z,1.15
2022-10-09T13:45:11.753Z,1.25
2022-10-09T13:46:13.990Z,1.40
2022-10-09T13:47:18.623Z,1.40
2022-10-09T13:48:25.706Z,1.40
2022-10-09T13:49:27.958Z,1.40
2022-10-09T13:50:30.216Z,1.45
2022-10-09T13:51:32.817Z,1.30
2022-10-09T13:52:35.247Z,1.40
2022-10-09T13:53:39.468Z,1.40
2022-10-09T13:54:43.847Z,1.35
2022-10-09T13:55:46.042Z,1.50
2022-10-09T13:56:48.579Z,2.10
2022-10-09T13:57:50.986Z,2.40
2022-10-09T13:58:53.773Z,1.77
2022-10-09T13:59:56.036Z,1.67
2022-10-09T14:00:58.732Z,2.00
2022-10-09T14:02:01.284Z,1.52
2022-10-09T14:03:04.884Z,1.48
2022-10-09T14:04:07.155Z,1.50
2022-10-09T14:05:09.658Z,1.60
2022-10-09T14:06:14.995Z,1.63
2022-10-09T14:07:17.454Z,1.33
2022-10-09T14:08:19.651Z,1.75
2022-10-09T14:09:24.759Z,1.60
2022-10-09T14:10:28.277Z,1.73
2022-10-09T14:11:30.569Z,1.60
2022-10-09T14:12:35.449Z,1.67
2022-10-09T14:13:37.659Z,1.55
2022-10-09T14:14:47.498Z,1.45
2022-10-09T14:15:50.018Z,1.67
2022-10-09T14:16:52.276Z,1.90
2022-10-09T14:17:54.485Z,1.50
2022-10-09T14:19:01.861Z,1.80
2022-10-09T14:20:04.305Z,1.50
2022-10-09T14:21:24.829Z,1.90
2022-10-09T14:22:29.354Z,1.70
2022-10-09T14:23:31.533Z,1.55
2022-10-09T14:24:33.994Z,1.85
2022-10-09T14:25:36.356Z,1.92
2022-10-09T14:26:40.946Z,1.70
2022-10-09T14:27:44.146Z,1.23
2022-10-09T14:28:46.665Z,1.23
2022-10-09T14:29:49.782Z,1.60
2022-10-09T14:30:53.339Z,1.50
2022-10-09T14:31:55.538Z,1.40
2022-10-09T14:32:58.630Z,1.30
2022-10-09T14:34:00.912Z,1.40
2022-10-09T14:35:03.370Z,1.35
2022-10-09T14:36:14.672Z,1.45
2022-10-09T14:37:29.670Z,1.60
2022-10-09T14:38:40.440Z,1.23
2022-10-09T14:39:46.878Z,1.27
2022-10-09T14:40:49.436Z,1.20
2022-10-09T14:41:51.686Z,1.40
2022-10-09T14:43:03.097Z,1.20
2022-10-09T14:44:05.906Z,1.20
2022-10-09T14:45:12.139Z,0.98
2022-10-09T14:46:18.265Z,1.23
2022-10-09T14:47:23.262Z,1.23
2022-10-09T14:48:31.493Z,1.20
2022-10-09T14:49:33.682Z,1.30
2022-10-09T14:50:36.518Z,1.20
2022-10-09T14:51:40.172Z,1.40
2022-10-09T14:52:42.468Z,1.48